• Join FlightAware (Why Join?)
  • Login
  • US Flag 
10:04AM EDT


 

Airport Tracker/Info


-or-


 

Live Flight TrackerFlight Track Log ✈ CJC5023 ✈ 15-May-2012 ✈ KIAH - KTYR

Flight Track Log - Related Links

Times and Time Zones

All times are in EDT time to prevent confusion due to time zone crossing. See the CJC5023 flight status page for this flight to view local times or setup timezone preferences in your user account.

Time Position Orientation Groundspeed Altitude Reporting Facility
EDT Latitude Longitude Course Direction KTS MPH feet Rate Location/Type
10:21AM 29.9911 -95.3564 North 158 182 800  Level Houston Center
10:23AM 30.0350 -95.3556 25° Northeast 172 198 2,300 1,020 Climbing Houston Center
10:24AM 30.0817 -95.3308 21° North 199 229 3,000 300 Climbing Houston Center
10:25AM 30.1428 -95.3042 21° North 231 266 3,000 420 Level Houston Center
10:26AM 30.2019 -95.2775 360° North 227 261 3,900 1,140 Climbing Houston Center
10:27AM 30.2647 -95.2775 354° North 198 228 5,500 1,440 Climbing Houston Center
10:28AM 30.3147 -95.2839 353° North 196 226 7,000 1,320 Climbing Houston Center
10:29AM 30.3644 -95.2906 353° North 184 212 8,200 1,080 Climbing Houston Center
10:30AM 30.4144 -95.2972 358° North 177 204 9,200 960 Climbing Houston Center
10:31AM 30.4664 -95.2989 356° North 177 204 10,200 960 Climbing Houston Center
10:32AM 30.5186 -95.3033 358° North 182 209 11,200 840 Climbing Houston Center
10:33AM 30.5706 -95.3050 356° North 182 209 12,000 780 Climbing Houston Center
10:34AM 30.6269 -95.3094 354° North 182 209 12,800 780 Climbing Houston Center
10:35AM 30.6831 -95.3164 356° North 192 221 13,600 600 Climbing Houston Center
10:36AM 30.7414 -95.3208 356° North 202 232 14,000 180 Climbing Houston Center
10:37AM 30.8058 -95.3256 356° North 216 249 14,000  Level Houston Center
10:38AM 30.8767 -95.3308 358° North 231 266 14,000  Level Houston Center
10:39AM 30.9475 -95.3333 354° North 243 280 14,000  Level Houston Center
10:40AM 31.0100 -95.3406 357° North 248 285 14,000  Level Houston Center
10:41AM 31.0786 -95.3453 356° North 248 285 14,000 -480 Level Houston Center
10:42AM 31.1925 -95.3542 355° North 260 299 12,800 -960 Descending Fort Worth Center
10:43AM 31.2822 -95.3642 354° North 280 322 11,600 -1,260 Descending Fort Worth Center
10:44AM 31.3472 -95.3725 352° North 255 293 10,300 -840 Descending Fort Worth Center
10:45AM 31.4100 -95.3833 356° North 255 293 10,000 -180 Descending Fort Worth Center
10:46AM 31.4769 -95.3892 358° North 255 293 10,000  Level Fort Worth Center
10:47AM 31.5458 -95.3925 North 255 293 10,000 -780 Level Fort Worth Center
10:48AM 31.6208 -95.3908 359° North 265 305 8,500 -1,500 Descending Fort Worth Center
10:49AM 31.6919 -95.3917 North 265 305 7,000 -1,260 Descending Fort Worth Center
10:50AM 31.7650 -95.3903 North 260 299 6,000 -540 Descending Fort Worth Center
10:51AM 31.8297 -95.3889 North 248 285 6,000 -360 Level Fort Worth Center
10:52AM 31.8922 -95.3875 North 232 267 5,300 -960 Descending Fort Worth Center
10:53AM 31.9569 -95.3858 North 232 267 4,100 -1,140 Descending Fort Worth Center
10:54AM 32.0236 -95.3819 North 232 267 3,100 -600 Descending Fort Worth Center
10:55AM 32.0800 -95.3808 North 226 260 3,000 -60 Descending Fort Worth Center
10:56AM 32.1364 -95.3794 359° North 212 244 3,000 -300 Level Fort Worth Center
10:57AM 32.1992 -95.3806 359° North 212 244 2,400 -600 Descending Fort Worth Center